Time;durP1;ratioP1;P1;durP2;ratioP2;P2;SDS_P1;SDS_P2;PMS_P1;PMS_P2;Temp;Humidity;BMP_temperature;BMP_pressure;BME280_temperature;BME280_humidity;BME280_pressure;Samples;Min_cycle;Max_cycle;Signal;HPM_P1;HPM_P2
2022/08/01 00:01:32;;;;;;;9.23;4.70;;;;;;;18.24;84.49;99691.16;1713117;83;21058;-68
2022/08/01 00:04:00;;;;;;;15.78;5.00;;;;;;;18.24;84.49;99685.83;1678443;85;21203;-68
2022/08/01 00:06:27;;;;;;;10.78;4.95;;;;;;;18.22;84.67;99694.42;1678680;85;21049;-69
2022/08/01 00:08:53;;;;;;;11.40;4.60;;;;;;;18.20;84.78;99687.02;1712988;83;21042;-68
2022/08/01 00:11:20;;;;;;;8.78;4.55;;;;;;;18.21;84.90;99691.38;1713034;82;21037;-68
2022/08/01 00:13:48;;;;;;;8.20;4.42;;;;;;;18.20;85.03;99684.36;1713027;83;21432;-67
2022/08/01 00:16:15;;;;;;;11.12;4.72;;;;;;;18.21;84.99;99686.05;1678423;85;21241;-69
2022/08/01 00:18:42;;;;;;;13.10;4.62;;;;;;;18.22;85.10;99683.77;1678444;85;21033;-68
2022/08/01 00:21:08;;;;;;;9.45;4.95;;;;;;;18.20;85.17;99680.36;1678464;85;21033;-67
2022/08/01 00:23:36;;;;;;;12.30;6.03;;;;;;;18.19;85.30;99684.47;1712975;83;21053;-69
2022/08/01 00:26:03;;;;;;;10.60;5.35;;;;;;;18.17;85.47;99680.57;1712859;82;21118;-68
2022/08/01 00:28:29;;;;;;;14.03;5.72;;;;;;;18.15;85.57;99683.86;1713145;82;21198;-69
2022/08/01 00:30:56;;;;;;;12.03;5.37;;;;;;;18.11;85.73;99682.39;1712565;83;21046;-67
2022/08/01 00:33:22;;;;;;;10.63;4.87;;;;;;;18.09;85.78;99685.66;1712937;83;21081;-68
2022/08/01 00:35:49;;;;;;;11.85;4.92;;;;;;;18.09;86.01;99682.14;1712634;82;21124;-68
2022/08/01 00:38:15;;;;;;;12.40;4.30;;;;;;;18.00;86.29;99669.02;1678556;85;21128;-69
2022/08/01 00:40:42;;;;;;;7.37;4.28;;;;;;;18.04;86.52;99678.49;1712956;83;21949;-68
2022/08/01 00:43:09;;;;;;;9.98;4.00;;;;;;;18.05;86.41;99672.19;1712561;82;21121;-69
2022/08/01 00:45:36;;;;;;;12.20;4.72;;;;;;;18.04;86.39;99677.16;1713148;83;21109;-68
2022/08/01 00:48:04;;;;;;;8.58;4.33;;;;;;;18.05;86.30;99674.01;1713160;82;21041;-67
2022/08/01 00:50:30;;;;;;;9.93;4.08;;;;;;;18.02;86.31;99669.77;1678603;85;21056;-68
2022/08/01 00:52:57;;;;;;;9.60;4.15;;;;;;;17.97;86.56;99666.60;1678352;85;21135;-69
2022/08/01 00:55:23;;;;;;;8.18;4.10;;;;;;;17.93;86.84;99666.45;1686075;84;21077;-68
2022/08/01 00:57:50;;;;;;;8.18;4.15;;;;;;;17.93;86.82;99665.13;1684337;85;22165;-67
2022/08/01 01:00:17;;;;;;;10.38;4.50;;;;;;;17.91;87.19;99668.38;1633994;84;21100;-69
2022/08/01 01:02:44;;;;;;;10.88;4.67;;;;;;;17.89;87.04;99664.48;1678407;85;21045;-69
2022/08/01 01:05:10;;;;;;;11.60;4.90;;;;;;;17.87;87.29;99669.08;1678590;85;21202;-67
2022/08/01 01:08:04;;;;;;;15.03;4.72;;;;;;;17.85;87.31;99662.17;1678479;85;21227;-67
2022/08/01 01:10:56;;;;;;;13.03;5.03;;;;;;;17.85;87.33;99660.84;1678307;85;21077;-68
2022/08/01 01:13:49;;;;;;;12.13;4.92;;;;;;;17.81;87.61;99667.73;1712855;83;22034;-68
2022/08/01 01:16:18;;;;;;;11.10;5.30;;;;;;;17.77;87.75;99658.23;1713041;82;21046;-68
2022/08/01 01:18:49;;;;;;;8.38;5.10;;;;;;;17.74;88.28;99667.80;1678302;85;21242;-67
2022/08/01 01:21:24;;;;;;;13.45;4.85;;;;;;;17.72;88.54;99664.88;1713028;83;21046;-68
2022/08/01 01:24:32;;;;;;;6.55;4.60;;;;;;;17.69;88.86;99671.29;1712847;82;21594;-68
2022/08/01 01:27:24;;;;;;;9.93;4.53;;;;;;;17.68;88.84;99680.22;1712835;83;21038;-67
2022/08/01 01:29:54;;;;;;;11.12;4.53;;;;;;;17.65;89.17;99681.79;1678321;85;21127;-67
2022/08/01 01:32:33;;;;;;;12.00;4.50;;;;;;;17.63;89.40;99682.38;1712666;83;21137;-67
2022/08/01 01:35:06;;;;;;;13.25;4.47;;;;;;;17.59;89.72;99678.23;1678246;85;21138;-67
2022/08/01 01:37:33;;;;;;;6.05;4.33;;;;;;;17.56;89.77;99681.14;1678758;85;21093;-67
2022/08/01 01:40:00;;;;;;;7.00;4.15;;;;;;;17.52;90.21;99679.66;1678245;85;20978;-67
2022/08/01 01:42:27;;;;;;;11.55;4.80;;;;;;;17.48;90.52;99681.67;1712786;83;21542;-67
2022/08/01 01:44:54;;;;;;;9.10;4.62;;;;;;;17.44;90.82;99680.67;1712774;83;21157;-66
2022/08/01 01:47:20;;;;;;;14.65;4.65;;;;;;;17.40;90.97;99684.91;1712655;83;21089;-68
2022/08/01 01:49:47;;;;;;;10.28;4.15;;;;;;;17.37;91.21;99679.81;1678217;84;21081;-68
2022/08/01 01:52:16;;;;;;;10.08;4.10;;;;;;;17.36;91.42;99679.42;1712688;83;21038;-67
2022/08/01 01:54:50;;;;;;;9.93;5.00;;;;;;;17.32;91.61;99679.30;1712668;82;21016;-67
2022/08/01 01:57:19;;;;;;;10.18;4.83;;;;;;;17.28;92.03;99676.48;1712631;83;21574;-68
2022/08/01 01:59:46;;;;;;;8.80;4.70;;;;;;;17.25;92.08;99684.67;1712993;83;21031;-67
2022/08/01 02:02:13;;;;;;;11.70;4.83;;;;;;;17.22;92.38;99690.22;1697712;82;21141;-68
2022/08/01 02:04:44;;;;;;;8.73;5.03;;;;;;;17.17;92.57;99681.72;1650918;86;21052;-67
2022/08/01 02:07:15;;;;;;;8.60;5.42;;;;;;;17.15;92.72;99684.48;1684408;85;21065;-69
2022/08/01 02:09:42;;;;;;;9.43;4.40;;;;;;;17.14;92.73;99685.95;1651235;86;21201;-68
2022/08/01 02:12:12;;;;;;;7.40;4.65;;;;;;;17.12;92.80;99685.20;1684208;85;21600;-67
2022/08/01 02:14:41;;;;;;;9.55;4.80;;;;;;;17.10;92.76;99683.97;1651134;86;21056;-67
2022/08/01 02:17:11;;;;;;;8.50;4.80;;;;;;;17.10;92.94;99679.14;1684315;85;21069;-68
2022/08/01 02:19:38;;;;;;;11.12;4.65;;;;;;;17.08;92.95;99682.38;1684312;84;21629;-67
2022/08/01 02:22:10;;;;;;;8.58;4.95;;;;;;;17.06;92.91;99681.64;1684167;85;21245;-68
2022/08/01 02:24:50;;;;;;;9.20;5.10;;;;;;;17.04;93.20;99683.55;1650808;86;21092;-68
2022/08/01 02:27:28;;;;;;;6.75;4.58;;;;;;;17.01;93.15;99679.79;1650796;86;21296;-68
2022/08/01 02:29:58;;;;;;;6.83;4.95;;;;;;;16.98;92.95;99679.05;1650569;86;21139;-68
2022/08/01 02:32:31;;;;;;;8.73;4.60;;;;;;;16.96;92.98;99676.13;1683909;84;22305;-69
2022/08/01 02:35:01;;;;;;;14.10;5.15;;;;;;;16.96;92.80;99675.64;1651078;86;21776;-69
2022/08/01 02:37:29;;;;;;;7.25;4.10;;;;;;;16.96;92.51;99670.32;1684075;85;21085;-69
2022/08/01 02:39:56;;;;;;;7.67;4.40;;;;;;;16.96;92.35;99678.30;1650880;86;21116;-68
2022/08/01 02:42:25;;;;;;;9.55;4.47;;;;;;;16.96;92.31;99675.64;1650757;86;21060;-66
2022/08/01 02:44:51;;;;;;;9.60;4.20;;;;;;;16.96;92.16;99671.65;1684204;84;21622;-68
2022/08/01 02:47:20;;;;;;;15.53;4.10;;;;;;;16.98;91.82;99671.06;1658287;85;21238;-69
2022/08/01 02:49:48;;;;;;;8.28;4.15;;;;;;;17.04;91.07;99668.44;1684425;84;21104;-68
2022/08/01 02:52:17;;;;;;;7.42;3.75;;;;;;;17.10;90.27;99669.83;1650722;86;21599;-68
2022/08/01 02:54:45;;;;;;;10.43;4.37;;;;;;;17.18;89.55;99674.09;1661327;85;21060;-67
2022/08/01 02:57:11;;;;;;;9.38;4.00;;;;;;;17.22;88.97;99667.60;1678374;85;21060;-66
2022/08/01 02:59:38;;;;;;;7.65;3.72;;;;;;;17.28;88.39;99666.33;1713167;83;21140;-67
2022/08/01 03:02:05;;;;;;;9.15;4.30;;;;;;;17.34;87.06;99673.84;1713148;82;21107;-69
2022/08/01 03:04:37;;;;;;;7.33;3.62;;;;;;;17.45;86.86;99679.73;1678423;85;21064;-68
2022/08/01 03:07:05;;;;;;;8.55;4.40;;;;;;;17.49;86.64;99675.89;1713172;83;21042;-68
2022/08/01 03:09:36;;;;;;;11.20;4.40;;;;;;;17.52;86.77;99679.66;1678478;85;21061;-67
2022/08/01 03:12:05;;;;;;;9.45;4.50;;;;;;;17.54;86.79;99676.40;1713168;83;21788;-68
2022/08/01 03:14:34;;;;;;;10.30;5.17;;;;;;;17.55;87.14;99674.97;1713162;83;21002;-68
2022/08/01 03:17:00;;;;;;;10.63;4.75;;;;;;;17.57;87.28;99682.82;1678502;85;21078;-67
2022/08/01 03:19:27;;;;;;;11.40;4.30;;;;;;;17.57;87.22;99679.67;1713091;83;21034;-69
2022/08/01 03:21:53;;;;;;;8.28;4.95;;;;;;;17.62;86.91;99683.33;1702624;83;21141;-68
2022/08/01 03:24:20;;;;;;;10.72;3.95;;;;;;;17.68;86.19;99689.54;1678582;85;21114;-68
2022/08/01 03:26:46;;;;;;;6.47;3.90;;;;;;;17.74;85.68;99677.61;1678599;85;21096;-68
2022/08/01 03:29:19;;;;;;;8.65;4.22;;;;;;;17.82;85.07;99682.73;1678351;85;21096;-67
2022/08/01 03:31:46;;;;;;;10.95;3.98;;;;;;;17.95;84.25;99685.84;1702541;83;21037;-69
2022/08/01 03:34:12;;;;;;;10.30;4.10;;;;;;;18.10;83.24;99683.34;1678370;85;21101;-68
2022/08/01 03:36:50;;;;;;;10.98;4.10;;;;;;;18.32;81.74;99687.91;1678198;85;21206;-68
2022/08/01 03:39:18;;;;;;;10.35;4.00;;;;;;;18.68;80.40;99683.84;1665615;85;21105;-69
2022/08/01 03:41:50;;;;;;;13.25;3.72;;;;;;;19.12;77.96;99681.72;1712835;83;21006;-69
2022/08/01 03:44:20;;;;;;;5.92;3.37;;;;;;;19.47;75.87;99681.55;1712965;82;21021;-68
2022/08/01 03:46:48;;;;;;;;;;;;;;;19.80;74.16;99682.45;1715533;83;21052;-69
2022/08/01 03:49:19;;;;;;;9.15;3.60;;;;;;;20.16;72.81;99683.05;1712982;83;21126;-68
2022/08/01 03:51:49;;;;;;;8.65;3.58;;;;;;;20.46;70.16;99678.26;1677365;85;21052;-68
2022/08/01 03:54:19;;;;;;;6.15;3.60;;;;;;;20.62;67.98;99676.98;1676136;85;21518;-68
2022/08/01 03:56:46;;;;;;;9.05;3.87;;;;;;;20.58;68.07;99673.71;1678481;85;21033;-69
2022/08/01 03:59:13;;;;;;;9.08;3.12;;;;;;;20.61;67.41;99670.77;1713077;83;21063;-69
2022/08/01 04:01:39;;;;;;;5.35;3.17;;;;;;;20.58;66.54;99673.71;1703064;83;21133;-68
2022/08/01 04:04:06;;;;;;;10.63;3.30;;;;;;;20.58;67.12;99672.38;1712850;83;21524;-69
2022/08/01 04:06:32;;;;;;;8.75;3.22;;;;;;;20.62;65.49;99673.81;1713155;83;21044;-68
2022/08/01 04:09:00;;;;;;;8.65;3.83;;;;;;;20.59;64.78;99674.09;1713019;82;21058;-69
2022/08/01 04:11:27;;;;;;;4.28;3.10;;;;;;;20.56;65.36;99674.33;1701643;83;22124;-69
2022/08/01 04:13:53;;;;;;;7.83;3.30;;;;;;;20.57;64.64;99672.50;1702777;83;21134;-69
2022/08/01 04:16:21;;;;;;;8.93;3.40;;;;;;;20.59;64.25;99670.08;1712766;82;21075;-68
2022/08/01 04:18:47;;;;;;;6.53;3.50;;;;;;;20.63;63.90;99670.14;1713225;83;21036;-67
2022/08/01 04:21:14;;;;;;;7.80;3.10;;;;;;;20.67;63.90;99672.92;1712905;82;21102;-69
2022/08/01 04:23:41;;;;;;;10.90;3.12;;;;;;;20.79;62.67;99672.84;1712828;83;21048;-68
2022/08/01 04:26:08;;;;;;;7.17;3.45;;;;;;;20.97;62.41;99669.89;1713080;83;21677;-69
2022/08/01 04:28:36;;;;;;;7.60;3.52;;;;;;;21.15;61.10;99664.25;1713193;82;21586;-68
2022/08/01 04:31:04;;;;;;;7.28;3.27;;;;;;;21.27;60.41;99665.48;1712862;82;22162;-69
2022/08/01 04:33:31;;;;;;;7.58;3.08;;;;;;;21.29;60.36;99660.34;1713073;83;21056;-69
2022/08/01 04:35:58;;;;;;;13.00;3.47;;;;;;;21.32;59.47;99669.94;1713054;83;21010;-68
2022/08/01 04:38:30;;;;;;;8.28;3.85;;;;;;;21.34;59.76;99666.63;1712937;83;21168;-69
2022/08/01 04:40:55;;;;;;;8.40;3.02;;;;;;;21.38;59.46;99662.70;1712368;83;21582;-68
2022/08/01 04:43:22;;;;;;;7.60;3.20;;;;;;;21.44;58.83;99666.22;1714483;82;21086;-68
2022/08/01 04:45:48;;;;;;;4.92;2.67;;;;;;;21.47;58.65;99659.23;1720424;83;21563;-69
2022/08/01 04:48:19;;;;;;;6.80;3.17;;;;;;;21.53;58.03;99662.70;1720541;82;21095;-70
2022/08/01 04:50:45;;;;;;;9.93;3.10;;;;;;;21.57;57.57;99661.42;1720548;83;21092;-68
2022/08/01 04:53:18;;;;;;;17.75;3.33;;;;;;;21.67;57.54;99657.44;1720506;83;21086;-69
2022/08/01 04:55:46;;;;;;;11.53;3.05;;;;;;;21.75;56.83;99670.97;1720640;83;21014;-68
2022/08/01 04:58:15;;;;;;;6.85;3.22;;;;;;;21.81;57.07;99666.89;1720636;82;21549;-68
2022/08/01 05:00:41;;;;;;;4.85;2.87;;;;;;;21.92;56.50;99665.39;1726392;82;21554;-69
2022/08/01 05:03:08;;;;;;;4.95;3.10;;;;;;;22.07;56.63;99662.31;1685825;84;21783;-69
2022/08/01 05:05:35;;;;;;;10.30;3.20;;;;;;;22.24;55.76;99659.42;1685731;85;21093;-68
2022/08/01 05:08:02;;;;;;;5.60;2.83;;;;;;;22.38;55.18;99654.47;1720796;82;21073;-67
2022/08/01 05:10:30;;;;;;;8.83;3.33;;;;;;;22.55;55.21;99656.06;1685777;84;21084;-70
2022/08/01 05:12:57;;;;;;;8.30;3.02;;;;;;;22.75;54.23;99653.67;1721418;82;21074;-68
2022/08/01 05:15:24;;;;;;;11.95;3.50;;;;;;;22.92;53.69;99653.89;1686326;84;21418;-69
2022/08/01 05:17:50;;;;;;;8.83;2.90;;;;;;;23.07;53.40;99652.41;1685808;85;21013;-70
2022/08/01 05:20:17;;;;;;;9.00;3.50;;;;;;;23.24;52.86;99643.58;1685865;85;22081;-69
2022/08/01 05:22:43;;;;;;;8.10;3.08;;;;;;;23.51;51.65;99641.83;1720615;83;21108;-69
2022/08/01 05:25:10;;;;;;;12.45;3.65;;;;;;;23.90;51.72;99642.08;1685857;84;21108;-69
2022/08/01 05:27:39;;;;;;;11.30;3.37;;;;;;;24.41;50.14;99635.95;1720470;82;21141;-69
2022/08/01 05:30:08;;;;;;;7.45;3.30;;;;;;;24.81;47.88;99645.29;1720482;83;21332;-69
2022/08/01 05:32:35;;;;;;;14.33;3.37;;;;;;;25.02;48.08;99642.70;1720636;83;21057;-69
2022/08/01 05:35:02;;;;;;;7.00;3.62;;;;;;;25.21;46.91;99639.76;1720334;83;21060;-70
2022/08/01 05:37:29;;;;;;;13.15;3.62;;;;;;;25.40;46.83;99640.48;1720934;83;21089;-69
2022/08/01 05:39:56;;;;;;;12.10;3.62;;;;;;;25.54;46.46;99638.53;1720553;83;21294;-68
2022/08/01 05:42:23;;;;;;;7.60;3.58;;;;;;;25.53;45.99;99639.00;1720709;82;21014;-68
2022/08/01 05:44:50;;;;;;;7.60;2.52;;;;;;;25.44;46.17;99642.69;1723777;82;21088;-68
2022/08/01 05:47:17;;;;;;;7.85;2.50;;;;;;;25.48;45.71;99645.91;1690817;84;21075;-69
2022/08/01 05:49:45;;;;;;;10.50;3.33;;;;;;;25.43;46.29;99649.62;1690806;84;21075;-69
2022/08/01 05:52:11;;;;;;;5.45;2.58;;;;;;;25.61;46.40;99655.72;1690971;84;21359;-70
2022/08/01 05:54:38;;;;;;;10.50;3.02;;;;;;;25.78;46.03;99655.75;1690880;84;21067;-69
2022/08/01 05:57:05;;;;;;;6.22;2.55;;;;;;;25.88;45.02;99645.66;1690772;84;21580;-69
2022/08/01 05:59:32;;;;;;;7.58;2.33;;;;;;;25.88;45.39;99647.88;1691214;84;21056;-68
2022/08/01 06:01:58;;;;;;;6.78;2.80;;;;;;;25.83;45.03;99640.73;1691153;84;21047;-70
2022/08/01 06:04:25;;;;;;;8.65;2.50;;;;;;;25.88;45.07;99638.92;1690964;84;21179;-68
2022/08/01 06:06:52;;;;;;;6.53;2.35;;;;;;;26.06;44.84;99645.00;1690986;84;21080;-68
2022/08/01 06:09:18;;;;;;;7.72;3.22;;;;;;;26.30;43.69;99646.02;1691373;84;21069;-69
2022/08/01 06:11:45;;;;;;;6.80;1.98;;;;;;;26.51;43.41;99641.44;1691119;84;21021;-69
2022/08/01 06:14:12;;;;;;;9.28;2.42;;;;;;;26.81;42.31;99633.11;1691058;84;21089;-70
2022/08/01 06:16:39;;;;;;;7.33;2.17;;;;;;;27.12;42.12;99626.91;1691170;84;21231;-69
2022/08/01 06:19:05;;;;;;;5.28;2.15;;;;;;;27.41;41.28;99624.42;1690892;84;21045;-69
2022/08/01 06:21:32;;;;;;;7.47;2.92;;;;;;;27.67;41.17;99628.64;1690925;84;21075;-68
2022/08/01 06:23:58;;;;;;;7.40;2.42;;;;;;;27.94;39.94;99623.76;1690839;84;21076;-69
2022/08/01 06:26:25;;;;;;;8.18;2.47;;;;;;;28.06;40.08;99623.64;1691170;84;21104;-71
2022/08/01 06:28:51;;;;;;;9.15;2.20;;;;;;;27.94;39.45;99621.05;1690650;84;21104;-69
2022/08/01 06:31:18;;;;;;;4.35;2.00;;;;;;;27.98;39.75;99623.73;1691069;84;21076;-69
2022/08/01 06:33:44;;;;;;;6.12;2.08;;;;;;;27.99;39.15;99619.47;1690976;84;21099;-70
2022/08/01 06:36:11;;;;;;;6.40;2.00;;;;;;;28.05;38.73;99611.67;1691262;84;21084;-69
2022/08/01 06:38:37;;;;;;;6.28;2.45;;;;;;;27.94;38.86;99616.99;1691079;84;21556;-70
2022/08/01 06:41:04;;;;;;;4.87;1.80;;;;;;;27.95;39.33;99617.31;1691058;84;21887;-70
2022/08/01 06:43:31;;;;;;;5.45;1.87;;;;;;;28.10;39.19;99610.08;1690971;84;21112;-68
2022/08/01 06:45:57;;;;;;;6.60;1.80;;;;;;;28.33;38.00;99616.80;1685813;84;21044;-69
2022/08/01 06:48:24;;;;;;;6.92;2.15;;;;;;;28.21;38.12;99601.52;1720701;83;21562;-69
2022/08/01 06:51:07;;;;;;;5.53;1.77;;;;;;;28.20;38.10;99597.64;1720642;82;21096;-69
2022/08/01 06:53:19;;;;;;;3.87;2.00;;;;;;;28.26;38.14;99600.14;1718919;83;21112;-69
2022/08/01 06:55:45;;;;;;;2.77;2.00;;;;;;;28.31;37.51;99593.65;1718302;82;21572;-70
2022/08/01 06:58:12;;;;;;;7.17;2.30;;;;;;;28.38;38.03;99593.23;1718085;83;21025;-69
2022/08/01 07:00:38;;;;;;;6.85;2.35;;;;;;;28.47;36.65;99593.50;1717955;83;21549;-69
2022/08/01 07:03:05;;;;;;;6.00;2.20;;;;;;;28.48;36.96;99587.05;1718000;83;21099;-71
2022/08/01 07:05:31;;;;;;;7.50;2.70;;;;;;;28.55;37.41;99592.08;1717892;83;21350;-70
2022/08/01 07:07:58;;;;;;;8.08;2.70;;;;;;;28.68;36.94;99591.41;1718018;83;20993;-69
2022/08/01 07:10:25;;;;;;;6.40;3.25;;;;;;;28.68;36.73;99596.83;1717990;83;21057;-69
2022/08/01 07:12:51;;;;;;;14.35;2.70;;;;;;;28.74;37.17;99593.89;1717836;83;21088;-70
2022/08/01 07:15:20;;;;;;;5.92;2.40;;;;;;;29.10;36.56;99598.02;1717650;83;21088;-70
2022/08/01 07:17:46;;;;;;;5.83;2.35;;;;;;;29.33;36.06;99593.80;1717768;83;21182;-69
2022/08/01 07:20:13;;;;;;;5.45;2.35;;;;;;;29.43;36.08;99600.30;1717495;83;21056;-69
2022/08/01 07:22:39;;;;;;;11.15;2.30;;;;;;;29.55;35.25;99597.91;1717718;83;21116;-72
2022/08/01 07:25:07;;;;;;;5.97;2.45;;;;;;;29.64;35.33;99602.18;1717762;83;21508;-70
2022/08/01 07:27:36;;;;;;;12.35;2.10;;;;;;;29.67;35.43;99603.14;1717734;83;21130;-69
2022/08/01 07:30:04;;;;;;;10.90;2.08;;;;;;;29.47;35.84;99603.79;1718034;83;21947;-70
2022/08/01 07:32:31;;;;;;;5.83;2.40;;;;;;;29.19;36.05;99597.40;1717933;83;21024;-70
2022/08/01 07:34:58;;;;;;;4.80;2.00;;;;;;;29.03;36.58;99589.80;1717909;83;21576;-72
2022/08/01 07:37:25;;;;;;;3.05;2.10;;;;;;;28.86;37.04;99592.38;1718157;83;21163;-71
2022/08/01 07:39:51;;;;;;;5.85;2.10;;;;;;;28.55;36.99;99592.08;1718334;83;21080;-70
2022/08/01 07:42:18;;;;;;;5.37;2.42;;;;;;;28.26;37.87;99585.25;1717713;83;21625;-69
2022/08/01 07:44:44;;;;;;;3.98;1.92;;;;;;;28.08;38.35;99589.13;1720381;82;21033;-69
2022/08/01 07:47:11;;;;;;;5.10;1.95;;;;;;;28.05;38.47;99588.14;1690761;84;21131;-69
2022/08/01 07:49:37;;;;;;;7.12;2.37;;;;;;;28.11;38.14;99590.09;1690667;84;21060;-69
2022/08/01 07:52:04;;;;;;;9.08;2.12;;;;;;;28.14;38.69;99595.17;1690781;84;21040;-71
2022/08/01 07:54:32;;;;;;;5.67;2.17;;;;;;;28.19;38.67;99590.03;1690994;83;21549;-70
2022/08/01 07:56:58;;;;;;;4.72;2.10;;;;;;;28.16;38.92;99584.13;1690876;84;21041;-71
2022/08/01 07:59:25;;;;;;;7.50;2.30;;;;;;;28.20;39.31;99584.94;1690908;84;21059;-70
2022/08/01 08:01:52;;;;;;;7.80;2.20;;;;;;;28.61;38.90;99587.25;1690773;84;21048;-70
2022/08/01 08:04:19;;;;;;;9.83;2.25;;;;;;;28.95;38.00;99585.83;1691112;84;21092;-69
2022/08/01 08:06:47;;;;;;;6.30;2.00;;;;;;;29.01;38.01;99582.37;1690800;84;21852;-69
2022/08/01 08:09:15;;;;;;;3.77;2.02;;;;;;;29.29;37.36;99585.75;1691187;84;21608;-69
2022/08/01 08:11:44;;;;;;;7.83;2.15;;;;;;;29.51;37.74;99585.77;1690901;84;21040;-70
2022/08/01 08:14:10;;;;;;;8.35;2.58;;;;;;;29.81;37.44;99581.91;1690891;84;21080;-69
2022/08/01 08:16:38;;;;;;;7.70;2.10;;;;;;;30.14;36.82;99586.80;1690883;84;21040;-71
2022/08/01 08:19:05;;;;;;;8.05;2.27;;;;;;;30.07;36.74;99585.88;1691283;84;21092;-69
2022/08/01 08:21:32;;;;;;;10.45;2.27;;;;;;;29.97;37.36;99580.80;1690909;84;21108;-68
2022/08/01 08:26:43;;;;;;;8.23;2.55;;;;;;;30.76;35.99;99566.61;1690737;84;21618;-69
2022/08/01 08:29:10;;;;;;;7.17;2.70;;;;;;;30.76;35.99;99566.61;1691050;84;21084;-69
2022/08/01 08:31:37;;;;;;;6.05;2.20;;;;;;;30.73;35.98;99567.33;1690877;84;21516;-69
2022/08/01 08:34:04;;;;;;;7.85;3.00;;;;;;;30.70;36.28;99562.30;1691178;84;21639;-69
2022/08/01 08:36:31;;;;;;;7.40;2.30;;;;;;;30.77;36.56;99556.06;1691030;84;21056;-67
2022/08/01 08:39:02;;;;;;;7.03;2.70;;;;;;;30.83;36.52;99558.82;1691133;84;21100;-69
2022/08/01 08:41:33;;;;;;;7.05;2.80;;;;;;;30.84;36.38;99556.94;1690976;84;21037;-70
2022/08/01 08:44:03;;;;;;;4.35;2.42;;;;;;;30.86;36.31;99544.02;1690849;84;21920;-69
2022/08/01 08:46:32;;;;;;;10.68;2.72;;;;;;;30.88;36.24;99559.08;1679223;84;21096;-70
2022/08/01 08:49:00;;;;;;;8.30;2.45;;;;;;;30.94;36.27;99550.61;1726332;82;21053;-70
2022/08/01 08:51:27;;;;;;;8.20;2.70;;;;;;;31.05;36.10;99561.44;1712807;82;21055;-70
2022/08/01 08:53:56;;;;;;;6.25;2.55;;;;;;;31.05;36.13;99551.39;1712736;83;21046;-70
2022/08/01 08:56:24;;;;;;;9.58;2.20;;;;;;;31.07;36.51;99556.64;1712726;82;21842;-70
2022/08/01 08:58:50;;;;;;;5.85;2.72;;;;;;;31.06;36.74;99555.80;1677967;85;21006;-69
2022/08/01 09:01:17;;;;;;;5.12;2.50;;;;;;;31.18;36.70;99555.22;1712589;83;21089;-69
2022/08/01 09:03:44;;;;;;;8.35;2.40;;;;;;;31.34;36.54;99557.03;1712800;83;21515;-69
2022/08/01 09:06:11;;;;;;;5.58;2.60;;;;;;;31.48;36.24;99557.92;1678337;85;21018;-69
2022/08/01 09:08:38;;;;;;;7.87;2.30;;;;;;;31.62;36.27;99556.59;1712832;83;21596;-69
2022/08/01 09:11:05;;;;;;;7.05;2.60;;;;;;;31.89;36.14;99546.55;1678126;85;21514;-69
2022/08/01 09:13:31;;;;;;;6.72;2.70;;;;;;;32.11;35.59;99555.35;1678390;85;21178;-68
2022/08/01 09:15:58;;;;;;;8.60;2.90;;;;;;;32.06;34.77;99555.16;1712769;83;21129;-69
2022/08/01 09:18:40;;;;;;;11.40;3.02;;;;;;;31.88;35.07;99556.58;1678393;85;21589;-69
2022/08/01 09:21:10;;;;;;;6.85;2.65;;;;;;;31.90;35.41;99549.05;1713132;82;21248;-70
2022/08/01 09:23:44;;;;;;;5.95;2.40;;;;;;;32.00;36.07;99543.20;1713243;82;21449;-69
2022/08/01 09:26:12;;;;;;;5.50;2.75;;;;;;;32.24;36.04;99552.62;1678110;85;21405;-69
2022/08/01 09:28:40;;;;;;;6.80;2.70;;;;;;;32.37;35.51;99549.88;1678589;85;21093;-69
2022/08/01 09:31:10;;;;;;;10.70;2.77;;;;;;;32.51;35.50;99552.58;1712862;83;21049;-69
2022/08/01 09:33:56;;;;;;;4.95;2.50;;;;;;;32.59;35.29;99551.83;1712409;82;22210;-68
2022/08/01 09:36:25;;;;;;;14.43;3.72;;;;;;;32.52;35.34;99552.37;1678474;85;21030;-69
2022/08/01 09:38:54;;;;;;;15.58;3.30;;;;;;;32.50;35.93;99554.97;1712888;83;21061;-70
2022/08/01 09:41:30;;;;;;;6.15;3.08;;;;;;;32.36;35.58;99557.72;1657521;85;21030;-69
2022/08/01 09:43:57;;;;;;;10.10;3.62;;;;;;;32.41;35.81;99563.89;1712969;83;21057;-69
2022/08/01 09:46:24;;;;;;;5.83;2.98;;;;;;;32.51;35.78;99555.30;1722168;83;21090;-70
2022/08/01 09:49:05;;;;;;;6.60;3.33;;;;;;;32.48;35.71;99552.98;1725702;83;21100;-69
2022/08/01 09:51:37;;;;;;;7.37;3.12;;;;;;;32.29;35.67;99558.27;1724879;82;21080;-71
2022/08/01 09:54:06;;;;;;;11.38;3.67;;;;;;;31.95;36.47;99558.78;1690472;84;21084;-71
2022/08/01 09:56:45;;;;;;;9.25;3.40;;;;;;;31.66;37.21;99558.69;1690563;84;21135;-69
2022/08/01 10:00:01;;;;;;;5.00;2.92;;;;;;;31.58;37.26;99560.23;1796321;79;22634;-70
2022/08/01 10:02:36;;;;;;;11.25;3.22;;;;;;;31.72;37.33;99555.64;1755153;81;21274;-70
2022/08/01 10:05:07;;;;;;;8.15;3.52;;;;;;;31.86;37.12;99547.78;1756315;81;21127;-71
2022/08/01 10:07:35;;;;;;;8.28;3.47;;;;;;;31.75;37.18;99555.24;1722845;83;20929;-68
2022/08/01 10:10:12;;;;;;;5.85;2.98;;;;;;;31.55;37.46;99557.41;1722734;83;21584;-68
2022/08/01 10:12:39;;;;;;;9.78;3.40;;;;;;;31.20;37.74;99558.05;1722960;83;21023;-70
2022/08/01 10:15:07;;;;;;;7.47;3.90;;;;;;;30.91;38.93;99567.34;1722738;83;21552;-69
2022/08/01 10:17:35;;;;;;;10.20;4.20;;;;;;;30.70;38.35;99548.72;1722711;83;21132;-71
2022/08/01 10:20:03;;;;;;;4.03;3.60;;;;;;;30.61;39.06;99549.92;1722835;83;21060;-70
2022/08/01 10:22:31;;;;;;;14.20;3.70;;;;;;;30.50;39.43;99546.41;1722835;83;20977;-70
2022/08/01 10:24:58;;;;;;;11.35;4.05;;;;;;;30.52;40.79;99548.41;1722527;83;21056;-69
2022/08/01 10:27:25;;;;;;;9.20;3.50;;;;;;;30.57;40.66;99557.31;1693012;83;21060;-70
2022/08/01 10:30:07;;;;;;;5.97;4.05;;;;;;;30.59;40.06;99554.72;1722698;83;21843;-69
2022/08/01 10:32:35;;;;;;;9.10;3.55;;;;;;;30.51;40.09;99544.86;1722503;83;22155;-70
2022/08/01 10:35:06;;;;;;;6.65;3.90;;;;;;;30.52;40.44;99551.13;1722910;83;21084;-70
2022/08/01 10:37:35;;;;;;;18.87;4.67;;;;;;;30.52;41.09;99540.27;1722582;83;21032;-71
2022/08/01 10:40:04;;;;;;;9.75;3.77;;;;;;;30.72;40.94;99543.92;1722794;83;21069;-69
2022/08/01 10:42:34;;;;;;;8.63;3.95;;;;;;;30.97;40.43;99543.93;1722662;83;21128;-69
2022/08/01 10:45:01;;;;;;;8.35;4.20;;;;;;;31.07;39.71;99549.31;1723189;83;21075;-70
2022/08/01 10:47:35;;;;;;;8.98;4.33;;;;;;;31.17;40.38;99546.72;1722447;83;21615;-70
2022/08/01 10:50:27;;;;;;;12.90;4.40;;;;;;;31.24;40.66;99546.22;1722656;82;21103;-70
2022/08/01 10:53:16;;;;;;;9.45;4.12;;;;;;;31.19;40.47;99546.00;1721977;83;21354;-69
2022/08/01 10:56:01;;;;;;;7.80;4.33;;;;;;;31.07;39.74;99542.52;1715023;83;21115;-69
2022/08/01 10:58:37;;;;;;;8.78;4.00;;;;;;;30.72;40.95;99548.52;1716245;83;21699;-70
2022/08/01 11:01:18;;;;;;;11.30;4.45;;;;;;;30.77;41.38;99541.12;1720366;83;21064;-70
2022/08/01 11:04:05;;;;;;;7.53;4.03;;;;;;;31.05;41.70;99541.88;1720449;83;21016;-70
2022/08/01 11:06:54;;;;;;;12.43;4.22;;;;;;;31.37;40.63;99539.45;1698254;83;21052;-71
2022/08/01 11:09:28;;;;;;;4.70;3.90;;;;;;;31.59;40.56;99535.20;1718937;83;22167;-68
2022/08/01 11:12:08;;;;;;;6.55;3.85;;;;;;;31.49;39.85;99545.14;1657390;86;21309;-71
2022/08/01 11:15:02;;;;;;;8.98;3.98;;;;;;;31.15;40.35;99531.47;1670547;85;21061;-70
2022/08/01 11:17:49;;;;;;;10.48;3.87;;;;;;;30.87;41.18;99536.16;1670225;85;21061;-70
2022/08/01 11:20:23;;;;;;;9.83;4.22;;;;;;;30.74;41.50;99530.97;1670589;85;21589;-70
2022/08/01 11:23:07;;;;;;;7.75;3.87;;;;;;;30.51;42.19;99538.59;1670156;85;21856;-70
2022/08/01 11:25:45;;;;;;;8.00;4.08;;;;;;;30.45;42.16;99542.10;1670387;85;21053;-71
2022/08/01 11:28:23;;;;;;;9.35;4.30;;;;;;;30.52;42.25;99542.98;1670261;85;21092;-70
2022/08/01 11:30:58;;;;;;;10.15;4.03;;;;;;;30.69;41.27;99540.26;1670561;85;21049;-69
2022/08/01 11:33:46;;;;;;;10.60;3.80;;;;;;;30.58;41.44;99546.26;1665611;85;21102;-70
2022/08/01 11:36:16;;;;;;;8.40;3.77;;;;;;;30.45;41.73;99542.10;1680483;85;21110;-70
2022/08/01 11:38:49;;;;;;;;;;;;;;;30.18;41.67;99543.78;1682397;85;21049;-70
2022/08/01 11:41:29;;;;;;;8.73;4.12;;;;;;;30.20;41.78;99545.25;1679478;85;20221;-70
2022/08/01 11:44:10;;;;;;;6.22;4.30;;;;;;;30.31;41.31;99550.69;1679762;85;21086;-70
2022/08/01 11:46:59;;;;;;;7.97;4.28;;;;;;;30.23;41.24;99535.87;1680007;85;21070;-71